createdAt,value
2023-03-01T00:03:31.383Z,0.91
2023-03-01T00:08:37.021Z,0.93
2023-03-01T00:13:40.775Z,0.92
2023-03-01T00:18:44.384Z,0.93
2023-03-01T00:23:50.660Z,0.93
2023-03-01T00:28:54.764Z,0.92
2023-03-01T00:33:59.111Z,0.94
2023-03-01T00:39:05.303Z,0.93
2023-03-01T00:44:08.510Z,0.91
2023-03-01T00:49:14.327Z,0.87
2023-03-01T00:54:18.904Z,0.86
2023-03-01T00:59:22.221Z,0.82
2023-03-01T01:04:25.328Z,0.80
2023-03-01T01:09:29.863Z,0.78
2023-03-01T01:14:33.122Z,0.74
2023-03-01T01:19:36.350Z,0.72
2023-03-01T01:24:41.042Z,0.70
2023-03-01T01:29:44.721Z,0.70
2023-03-01T01:34:48.500Z,0.67
2023-03-01T01:39:53.231Z,0.66
2023-03-01T01:45:34.984Z,0.65
2023-03-01T01:50:40.781Z,0.62
2023-03-01T01:55:49.638Z,0.58
2023-03-01T02:00:53.629Z,0.55
2023-03-01T02:06:01.826Z,0.49
2023-03-01T02:11:07.487Z,0.45
2023-03-01T02:16:13.758Z,0.41
2023-03-01T02:21:38.095Z,0.39
2023-03-01T02:26:47.664Z,0.35
2023-03-01T02:31:55.779Z,0.35
2023-03-01T02:37:04.922Z,0.30
2023-03-01T02:42:08.921Z,0.28
2023-03-01T02:47:15.538Z,0.28
2023-03-01T02:52:35.065Z,0.26
2023-03-01T02:57:41.371Z,0.20
2023-03-01T03:02:46.708Z,0.19
2023-03-01T03:07:51.304Z,0.14
2023-03-01T03:12:56.669Z,0.09
2023-03-01T03:18:01.551Z,0.09
2023-03-01T03:23:04.916Z,0.04
2023-03-01T03:28:11.678Z,0.04
2023-03-01T03:33:16.795Z,0.03
2023-03-01T03:38:22.919Z,0.00
2023-03-01T03:43:26.290Z,0.00
2023-03-01T03:48:31.024Z,-0.01
2023-03-01T03:53:34.750Z,-0.03
2023-03-01T03:58:38.466Z,-0.08
2023-03-01T04:03:47.635Z,-0.10
2023-03-01T04:08:52.183Z,-0.16
2023-03-01T04:13:56.912Z,-0.22
2023-03-01T04:19:01.792Z,-0.21
2023-03-01T04:24:05.596Z,-0.26
2023-03-01T04:29:08.843Z,-0.28
2023-03-01T04:34:15.125Z,-0.35
2023-03-01T04:39:18.246Z,-0.37
2023-03-01T04:44:21.456Z,-0.38
2023-03-01T04:49:28.762Z,-0.42
2023-03-01T04:54:31.972Z,-0.43
2023-03-01T04:59:37.224Z,-0.47
2023-03-01T05:04:41.891Z,-0.47
2023-03-01T05:09:45.111Z,-0.52
2023-03-01T05:14:48.704Z,-0.53
2023-03-01T05:19:53.876Z,-0.55
2023-03-01T05:24:57.062Z,-0.58
2023-03-01T05:30:00.171Z,-0.59
2023-03-01T05:35:05.389Z,-0.64
2023-03-01T05:40:16.442Z,-0.66
2023-03-01T05:45:20.715Z,-0.68
2023-03-01T05:50:27.654Z,-0.72
2023-03-01T05:55:32.513Z,-0.73
2023-03-01T06:00:36.456Z,-0.71
2023-03-01T06:05:41.609Z,-0.69
2023-03-01T06:10:45.356Z,-0.67
2023-03-01T06:15:48.688Z,-0.66
2023-03-01T06:21:06.289Z,-0.62
2023-03-01T06:26:10.408Z,-0.60
2023-03-01T06:31:16.638Z,-0.55
2023-03-01T06:36:23.082Z,-0.48
2023-03-01T06:41:32.222Z,-0.42
2023-03-01T06:46:37.633Z,-0.34
2023-03-01T06:51:42.287Z,-0.23
2023-03-01T06:56:45.731Z,-0.13
2023-03-01T07:01:52.023Z,-0.03
2023-03-01T07:06:56.976Z,0.06
2023-03-01T07:12:06.152Z,0.19
2023-03-01T07:17:20.359Z,0.37
2023-03-01T07:22:25.340Z,1.38
2023-03-01T07:27:32.311Z,2.18
2023-03-01T07:32:35.816Z,3.19
2023-03-01T07:37:40.501Z,4.60
2023-03-01T07:42:43.831Z,5.55
2023-03-01T07:47:47.037Z,6.21
2023-03-01T07:53:05.825Z,6.34
2023-03-01T07:58:09.048Z,6.34
2023-03-01T08:03:13.588Z,7.42
2023-03-01T08:08:21.485Z,8.17
2023-03-01T08:13:24.780Z,8.50
2023-03-01T08:18:27.914Z,8.27
2023-03-01T08:23:32.682Z,7.61
2023-03-01T08:28:35.946Z,8.69
2023-03-01T08:33:39.164Z,9.97
2023-03-01T08:38:43.889Z,9.85
2023-03-01T08:43:47.128Z,8.83
2023-03-01T08:48:50.416Z,7.86
2023-03-01T08:53:55.374Z,7.58
2023-03-01T08:58:59.131Z,7.53
2023-03-01T09:04:02.689Z,7.47
2023-03-01T09:09:09.002Z,7.72
2023-03-01T09:14:12.108Z,7.29
2023-03-01T09:19:15.732Z,7.12
2023-03-01T09:24:23.212Z,7.15
2023-03-01T09:29:27.058Z,7.01
2023-03-01T09:34:30.546Z,6.80
2023-03-01T09:39:35.507Z,6.76
2023-03-01T09:44:42.506Z,6.75
2023-03-01T09:49:55.871Z,6.67
2023-03-01T09:55:01.191Z,6.65
2023-03-01T10:00:18.020Z,6.69
2023-03-01T10:05:48.290Z,6.73
2023-03-01T10:10:55.331Z,6.82
2023-03-01T10:16:03.999Z,6.64
2023-03-01T10:21:17.688Z,6.68
2023-03-01T10:26:42.903Z,6.84
2023-03-01T10:31:49.321Z,6.82
2023-03-01T10:36:55.389Z,7.00
2023-03-01T10:42:03.157Z,7.07
2023-03-01T10:47:06.461Z,7.16
2023-03-01T10:52:21.079Z,7.28
2023-03-01T10:57:32.893Z,7.20
2023-03-01T11:02:37.694Z,7.27
2023-03-01T11:07:50.689Z,7.22
2023-03-01T11:13:07.504Z,7.22
2023-03-01T11:18:30.955Z,7.23
2023-03-01T11:23:42.075Z,7.23
2023-03-01T11:28:54.068Z,7.18
2023-03-01T11:34:02.044Z,7.21
2023-03-01T11:39:13.237Z,7.11
2023-03-01T11:44:23.574Z,6.91
2023-03-01T11:49:56.876Z,7.08
2023-03-01T11:55:22.885Z,6.99
2023-03-01T12:00:48.590Z,7.12
2023-03-01T12:06:14.647Z,7.07
2023-03-01T12:11:34.646Z,6.92
2023-03-01T12:16:58.700Z,6.97
2023-03-01T12:22:19.316Z,6.96
2023-03-01T12:27:48.460Z,6.94
2023-03-01T12:33:05.992Z,6.97
2023-03-01T12:38:27.458Z,7.07
2023-03-01T12:43:47.404Z,7.06
2023-03-01T12:49:04.581Z,7.12
2023-03-01T12:54:16.638Z,7.17
2023-03-01T12:59:25.241Z,7.21
2023-03-01T13:04:49.289Z,7.25
2023-03-01T13:10:02.564Z,7.21
2023-03-01T13:15:26.500Z,7.32
2023-03-01T13:20:36.608Z,7.42
2023-03-01T13:26:05.301Z,7.40
2023-03-01T13:31:09.934Z,7.42
2023-03-01T13:36:56.244Z,7.48
2023-03-01T13:42:00.993Z,7.46
2023-03-01T13:47:18.526Z,7.51
2023-03-01T13:52:43.055Z,7.60
2023-03-01T13:57:54.937Z,7.59
2023-03-01T14:03:07.243Z,7.54
2023-03-01T14:08:24.109Z,7.59
2023-03-01T14:13:44.244Z,7.59
2023-03-01T14:18:55.878Z,7.68
2023-03-01T14:24:01.026Z,7.65
2023-03-01T14:29:04.293Z,7.66
2023-03-01T14:34:07.940Z,7.73
2023-03-01T14:39:22.177Z,7.70
2023-03-01T14:44:26.719Z,7.59
2023-03-01T14:49:33.341Z,7.63
2023-03-01T14:54:43.471Z,7.66
2023-03-01T14:59:48.972Z,7.67
2023-03-01T15:04:57.809Z,7.64
2023-03-01T15:10:03.733Z,7.58
2023-03-01T15:15:36.036Z,7.61
2023-03-01T15:20:39.275Z,7.59
2023-03-01T15:25:47.479Z,7.57
2023-03-01T15:30:57.431Z,7.54
2023-03-01T15:36:02.373Z,7.49
2023-03-01T15:41:24.478Z,7.48
2023-03-01T15:46:33.485Z,7.43
2023-03-01T15:51:38.837Z,7.41
2023-03-01T15:56:44.828Z,7.36
2023-03-01T16:01:50.049Z,7.31
2023-03-01T16:06:56.411Z,7.27
2023-03-01T16:12:01.350Z,7.21
2023-03-01T16:17:05.145Z,7.14
2023-03-01T16:22:10.382Z,7.09
2023-03-01T16:27:16.645Z,7.03
2023-03-01T16:32:19.990Z,6.95
2023-03-01T16:37:23.416Z,6.87
2023-03-01T16:42:28.149Z,6.81
2023-03-01T16:47:32.325Z,6.72
2023-03-01T16:52:36.112Z,6.63
2023-03-01T16:57:41.604Z,6.55
2023-03-01T17:02:45.272Z,6.46
2023-03-01T17:07:48.600Z,6.34
2023-03-01T17:12:53.339Z,6.23
2023-03-01T17:17:56.407Z,6.13
2023-03-01T17:22:59.876Z,6.03
2023-03-01T17:28:04.507Z,5.93
2023-03-01T17:33:07.708Z,5.84
2023-03-01T17:38:10.828Z,5.76
2023-03-01T17:43:18.523Z,5.65
2023-03-01T17:48:21.886Z,5.56
2023-03-01T17:53:25.101Z,5.49
2023-03-01T17:58:29.807Z,5.42
2023-03-01T18:03:33.036Z,5.36
2023-03-01T18:08:36.182Z,5.32
2023-03-01T18:13:40.915Z,5.26
2023-03-01T18:18:45.232Z,5.18
2023-03-01T18:23:48.824Z,5.12
2023-03-01T18:28:53.980Z,5.03
2023-03-01T18:33:57.154Z,4.93
2023-03-01T18:39:00.245Z,4.85
2023-03-01T18:44:06.640Z,4.77
2023-03-01T18:49:10.050Z,4.67
2023-03-01T18:54:21.916Z,4.58
2023-03-01T18:59:28.056Z,4.52
2023-03-01T19:04:33.869Z,4.46
2023-03-01T19:09:41.494Z,4.39
2023-03-01T19:14:46.373Z,4.34
2023-03-01T19:19:51.697Z,4.32
2023-03-01T19:24:55.046Z,4.28
2023-03-01T19:30:01.878Z,4.24
2023-03-01T19:35:05.706Z,4.25
2023-03-01T19:40:10.831Z,4.21
2023-03-01T19:45:20.076Z,4.16
2023-03-01T19:50:25.800Z,4.16
2023-03-01T19:55:38.372Z,4.16
2023-03-01T20:00:47.331Z,4.15
2023-03-01T20:05:50.888Z,4.12
2023-03-01T20:10:54.550Z,4.11
2023-03-01T20:15:59.586Z,4.08
2023-03-01T20:21:09.315Z,4.04
2023-03-01T20:26:23.382Z,4.03
2023-03-01T20:31:29.858Z,3.97
2023-03-01T20:36:34.282Z,3.94
2023-03-01T20:41:39.621Z,3.90
2023-03-01T20:46:44.804Z,3.84
2023-03-01T20:51:52.633Z,3.77
2023-03-01T20:56:55.784Z,3.71
2023-03-01T21:02:00.621Z,3.66
2023-03-01T21:07:04.020Z,3.63
2023-03-01T21:12:07.129Z,3.59
2023-03-01T21:17:13.447Z,3.57
2023-03-01T21:22:17.613Z,3.51
2023-03-01T21:27:21.483Z,3.49
2023-03-01T21:32:26.752Z,3.46
2023-03-01T21:37:30.139Z,3.42
2023-03-01T21:42:35.145Z,3.37
2023-03-01T21:47:41.062Z,3.35
2023-03-01T21:52:44.278Z,3.32
2023-03-01T21:57:47.477Z,3.27
2023-03-01T22:02:52.050Z,3.23
2023-03-01T22:07:55.832Z,3.19
2023-03-01T22:13:00.391Z,3.15
2023-03-01T22:18:05.257Z,3.13
2023-03-01T22:23:09.801Z,3.09
2023-03-01T22:28:12.949Z,3.03
2023-03-01T22:33:17.609Z,2.97
2023-03-01T22:38:20.756Z,2.93
2023-03-01T22:43:23.974Z,2.84
2023-03-01T22:48:28.679Z,2.76
2023-03-01T22:53:31.914Z,2.71
2023-03-01T22:58:35.008Z,2.66
2023-03-01T23:03:39.572Z,2.58
2023-03-01T23:08:43.762Z,2.52
2023-03-01T23:13:46.910Z,2.49
2023-03-01T23:18:51.616Z,2.43
2023-03-01T23:23:56.199Z,2.39
2023-03-01T23:28:59.528Z,2.31
2023-03-01T23:34:04.578Z,2.25
2023-03-01T23:39:08.717Z,2.18
2023-03-01T23:44:16.164Z,2.11
2023-03-01T23:49:22.370Z,2.04
2023-03-01T23:54:26.788Z,1.99
2023-03-01T23:59:29.904Z,1.91
